NCAR-RAP Real-Time Weather Data

Output produced by METARs form (12 May 2021  11:33 UTC)
found at http://weather.rap.ucar.edu/surface/
 
KPIT 121051Z 00000KT 10SM FEW028 FEW110 03/M01 A3031 RMK AO2 SLP279 T00281006
KPIT 120951Z 28004KT 10SM SCT028 02/M01 A3029 RMK AO2 SLP270 T00221006
KPIT 120851Z 25003KT 10SM BKN032 BKN200 04/M01 A3028 RMK AO2 SLP268 T00391006 53002
KPIT 120751Z 31007KT 10SM SCT050 SCT200 04/M01 A3027 RMK AO2 SLP261 T00391011
KPIT 120651Z 30006KT 10SM FEW040 SCT200 03/M02 A3026 RMK AO2 SLP261 T00331022
KPIT 120551Z 28007KT 10SM FEW030 03/M03 A3028 RMK AO2 SLP265 T00281028 10094 20028 58002
KPIT 120451Z 26004KT 10SM CLR 04/M03 A3028 RMK AO2 SLP265 T00391028 401330033
KPIT 120351Z 28005KT 10SM CLR 04/M03 A3028 RMK AO2 SLP267 T00441033
KPIT 120251Z 31006KT 10SM FEW070 06/M03 A3028 RMK AO2 SLP266 T00561033 53022
KPIT 120151Z 31007KT 10SM FEW070 FEW250 07/M04 A3026 RMK AO2 SLP260 T00671039
KPIT 120051Z 33008KT 10SM FEW070 FEW250 08/M06 A3023 RMK AO2 SLP250 T00831056
KPIT 112351Z 32017G23KT 10SM FEW065 FEW250 09/M05 A3021 RMK AO2 SLP244 T00941050 10133 20094 53022
KPIT 112251Z 33013KT 10SM SCT065 SCT250 11/M03 A3019 RMK AO2 SLP233 T01111033
KPIT 112151Z 32014G25KT 10SM BKN070 BKN250 12/M04 A3016 RMK AO2 SLP224 T01171039
KPIT 112051Z 31015KT 10SM BKN080 12/M03 A3015 RMK AO2 SLP220 T01171033 50000
KPIT 111951Z 29012G19KT 10SM BKN080 BKN120 13/M03 A3015 RMK AO2 SLP219 T01281033